createdAt,value
2023-01-13T00:00:32.893Z,9.52
2023-01-13T00:02:59.352Z,9.50
2023-01-13T00:05:26.678Z,9.54
2023-01-13T00:07:53.107Z,9.53
2023-01-13T00:10:19.567Z,9.52
2023-01-13T00:12:45.973Z,9.46
2023-01-13T00:15:13.359Z,9.39
2023-01-13T00:17:39.833Z,9.46
2023-01-13T00:20:07.241Z,9.47
2023-01-13T00:22:34.919Z,9.43
2023-01-13T00:25:01.601Z,9.39
2023-01-13T00:27:29.027Z,9.41
2023-01-13T00:29:55.494Z,9.38
2023-01-13T00:32:21.975Z,9.44
2023-01-13T00:34:48.363Z,9.36
2023-01-13T00:37:14.819Z,9.34
2023-01-13T00:39:41.627Z,9.36
2023-01-13T00:42:27.309Z,9.35
2023-01-13T00:44:53.679Z,9.33
2023-01-13T00:47:20.047Z,9.33
2023-01-13T00:49:48.082Z,9.34
2023-01-13T00:52:14.471Z,9.32
2023-01-13T00:54:40.842Z,9.38
2023-01-13T00:57:07.566Z,9.36
2023-01-13T00:59:33.928Z,9.35
2023-01-13T01:02:00.424Z,9.34
2023-01-13T01:04:26.849Z,9.36
2023-01-13T01:06:53.268Z,9.37
2023-01-13T01:09:19.653Z,9.38
2023-01-13T01:11:46.044Z,9.43
2023-01-13T01:14:13.619Z,9.41
2023-01-13T01:16:41.003Z,9.42
2023-01-13T01:19:07.849Z,9.46
2023-01-13T01:21:34.696Z,9.40
2023-01-13T01:24:03.081Z,9.45
2023-01-13T01:26:30.615Z,9.44
2023-01-13T01:28:57.398Z,9.43
2023-01-13T01:31:26.612Z,9.44
2023-01-13T01:33:54.188Z,9.42
2023-01-13T01:36:21.785Z,9.42
2023-01-13T01:38:49.283Z,9.41
2023-01-13T01:41:27.581Z,9.41
2023-01-13T01:44:04.095Z,9.41
2023-01-13T01:46:33.468Z,9.42
2023-01-13T01:49:14.079Z,9.43
2023-01-13T01:51:59.374Z,9.45
2023-01-13T01:54:50.257Z,9.44
2023-01-13T01:57:44.727Z,9.43
2023-01-13T02:00:12.335Z,9.47
2023-01-13T02:02:39.820Z,9.44
2023-01-13T02:05:06.741Z,9.45
2023-01-13T02:07:34.405Z,9.49
2023-01-13T02:10:07.174Z,9.48
2023-01-13T02:12:33.952Z,9.50
2023-01-13T02:15:16.855Z,9.52
2023-01-13T02:17:52.196Z,9.48
2023-01-13T02:20:45.461Z,9.46
2023-01-13T02:23:34.708Z,9.49
2023-01-13T02:26:25.176Z,9.44
2023-01-13T02:29:13.125Z,9.46
2023-01-13T02:31:42.138Z,9.45
2023-01-13T02:34:17.560Z,9.48
2023-01-13T02:36:50.176Z,9.46
2023-01-13T02:39:23.001Z,9.48
2023-01-13T02:42:15.647Z,9.47
2023-01-13T02:44:53.813Z,9.48
2023-01-13T02:47:26.436Z,9.48
2023-01-13T02:49:58.996Z,9.42
2023-01-13T02:52:33.313Z,9.50
2023-01-13T02:55:12.749Z,9.47
2023-01-13T02:57:39.745Z,9.48
2023-01-13T03:00:07.229Z,9.49
2023-01-13T03:02:33.705Z,9.54
2023-01-13T03:05:00.778Z,9.53
2023-01-13T03:07:27.116Z,9.54
2023-01-13T03:10:07.562Z,9.59
2023-01-13T03:12:44.329Z,9.58
2023-01-13T03:15:37.010Z,9.57
2023-01-13T03:18:39.770Z,9.62
2023-01-13T03:21:28.492Z,9.62
2023-01-13T03:24:03.742Z,9.58
2023-01-13T03:27:14.112Z,9.61
2023-01-13T03:29:45.478Z,9.62
2023-01-13T03:32:30.195Z,9.65
2023-01-13T03:35:02.759Z,9.64
2023-01-13T03:37:33.540Z,9.62
2023-01-13T03:40:02.671Z,9.60
2023-01-13T03:42:31.388Z,9.63
2023-01-13T03:45:03.191Z,9.64
2023-01-13T03:47:29.493Z,9.65
2023-01-13T03:50:00.206Z,9.64
2023-01-13T03:52:31.853Z,9.68
2023-01-13T03:55:02.407Z,9.67
2023-01-13T03:57:31.664Z,9.64
2023-01-13T04:00:00.909Z,9.65
2023-01-13T04:02:33.174Z,9.62
2023-01-13T04:05:01.333Z,9.59
2023-01-13T04:07:44.572Z,9.62
2023-01-13T04:10:12.338Z,9.63
2023-01-13T04:13:02.801Z,9.61
2023-01-13T04:15:35.267Z,9.63
2023-01-13T04:18:23.620Z,9.60
2023-01-13T04:20:52.093Z,9.56
2023-01-13T04:23:19.685Z,9.54
2023-01-13T04:25:46.941Z,9.56
2023-01-13T04:28:14.522Z,9.57
2023-01-13T04:30:42.000Z,9.56
2023-01-13T04:33:08.888Z,9.57
2023-01-13T04:35:35.793Z,9.52
2023-01-13T04:38:03.951Z,9.52
2023-01-13T04:40:30.495Z,9.58
2023-01-13T04:42:56.943Z,9.53
2023-01-13T04:45:23.323Z,9.52
2023-01-13T04:47:49.792Z,9.55
2023-01-13T04:50:19.653Z,9.57
2023-01-13T04:52:50.480Z,9.60
2023-01-13T04:55:17.630Z,9.57
2023-01-13T04:57:44.171Z,9.51
2023-01-13T05:00:12.924Z,9.38
2023-01-13T05:02:39.492Z,9.23
2023-01-13T05:05:06.416Z,9.16
2023-01-13T05:07:33.158Z,9.08
2023-01-13T05:09:59.652Z,9.04
2023-01-13T05:12:44.667Z,9.04
2023-01-13T05:15:31.822Z,9.03
2023-01-13T05:17:58.413Z,8.98
2023-01-13T05:20:25.373Z,8.93
2023-01-13T05:23:10.093Z,8.99
2023-01-13T05:25:39.689Z,9.00
2023-01-13T05:28:06.371Z,8.97
2023-01-13T05:30:37.528Z,8.84
2023-01-13T05:33:04.533Z,8.78
2023-01-13T05:35:33.862Z,8.75
2023-01-13T05:38:00.300Z,8.71
2023-01-13T05:40:45.013Z,8.69
2023-01-13T05:43:19.810Z,8.72
2023-01-13T05:46:07.840Z,8.68
2023-01-13T05:48:41.512Z,8.65
2023-01-13T05:51:09.951Z,8.71
2023-01-13T05:53:36.551Z,8.66
2023-01-13T05:56:07.423Z,8.62
2023-01-13T05:58:34.141Z,8.57
2023-01-13T06:01:02.672Z,8.54
2023-01-13T06:03:29.161Z,8.56
2023-01-13T06:05:59.176Z,8.48
2023-01-13T06:08:26.029Z,8.50
2023-01-13T06:10:52.496Z,8.43
2023-01-13T06:13:19.014Z,8.56
2023-01-13T06:15:45.481Z,8.56
2023-01-13T06:18:12.424Z,8.57
2023-01-13T06:20:38.857Z,8.55
2023-01-13T06:23:09.174Z,8.52
2023-01-13T06:25:50.050Z,8.56
2023-01-13T06:28:16.467Z,8.59
2023-01-13T06:30:55.229Z,8.47
2023-01-13T06:33:24.840Z,8.36
2023-01-13T06:35:58.140Z,8.46
2023-01-13T06:38:26.017Z,8.38
2023-01-13T06:40:52.734Z,8.40
2023-01-13T06:43:19.219Z,8.48
2023-01-13T06:45:49.418Z,8.45
2023-01-13T06:48:17.448Z,8.49
2023-01-13T06:50:44.780Z,8.41
2023-01-13T06:53:11.247Z,8.37
2023-01-13T06:55:37.922Z,8.38
2023-01-13T06:58:04.385Z,8.40
2023-01-13T07:00:32.455Z,8.44
2023-01-13T07:03:13.361Z,8.49
2023-01-13T07:05:41.100Z,8.36
2023-01-13T07:08:08.809Z,8.36
2023-01-13T07:10:36.292Z,8.40
2023-01-13T07:13:22.782Z,8.35
2023-01-13T07:16:00.222Z,8.41
2023-01-13T07:18:28.370Z,8.38
2023-01-13T07:20:56.089Z,8.38
2023-01-13T07:23:22.641Z,8.44
2023-01-13T07:25:49.156Z,8.44
2023-01-13T07:28:15.844Z,8.44
2023-01-13T07:30:42.314Z,8.41
2023-01-13T07:33:08.933Z,8.42
2023-01-13T07:35:35.366Z,8.43
2023-01-13T07:38:01.784Z,8.43
2023-01-13T07:40:28.274Z,8.40
2023-01-13T07:43:14.503Z,8.39
2023-01-13T07:45:40.894Z,8.43
2023-01-13T07:48:07.309Z,8.46
2023-01-13T07:50:33.812Z,8.43
2023-01-13T07:53:00.241Z,8.46
2023-01-13T07:55:26.657Z,8.45
2023-01-13T07:57:53.086Z,8.44
2023-01-13T08:00:20.012Z,8.44
2023-01-13T08:02:46.498Z,8.40
2023-01-13T08:05:13.294Z,8.39
2023-01-13T08:07:40.351Z,8.41
2023-01-13T08:10:07.364Z,8.40
2023-01-13T08:12:56.535Z,8.42
2023-01-13T08:15:23.565Z,8.38
2023-01-13T08:17:50.398Z,8.36
2023-01-13T08:20:16.953Z,8.33
2023-01-13T08:22:44.267Z,8.32
2023-01-13T08:25:10.722Z,8.35
2023-01-13T08:27:37.311Z,8.39
2023-01-13T08:30:04.693Z,8.36
2023-01-13T08:32:31.488Z,8.35
2023-01-13T08:34:57.978Z,8.29
2023-01-13T08:37:24.403Z,8.33
2023-01-13T08:39:50.866Z,8.33
2023-01-13T08:42:17.892Z,8.35
2023-01-13T08:44:44.297Z,8.37
2023-01-13T08:47:10.688Z,8.36
2023-01-13T08:49:37.162Z,8.39
2023-01-13T08:52:04.692Z,8.38
2023-01-13T08:54:31.157Z,8.39
2023-01-13T08:56:57.640Z,8.41
2023-01-13T08:59:24.123Z,8.43
2023-01-13T09:01:50.692Z,8.43
2023-01-13T09:04:19.717Z,8.47
2023-01-13T09:06:47.158Z,8.50
2023-01-13T09:09:13.775Z,8.49
2023-01-13T09:12:01.002Z,8.50
2023-01-13T09:14:29.430Z,8.48
2023-01-13T09:16:56.492Z,8.47
2023-01-13T09:19:23.048Z,8.49
2023-01-13T09:21:49.725Z,8.50
2023-01-13T09:24:16.201Z,8.51
2023-01-13T09:26:42.615Z,8.49
2023-01-13T09:29:09.085Z,8.52
2023-01-13T09:31:35.567Z,8.52
2023-01-13T09:34:22.097Z,8.50
2023-01-13T09:36:48.761Z,8.50
2023-01-13T09:39:15.401Z,8.50
2023-01-13T09:42:03.489Z,8.50
2023-01-13T09:44:39.835Z,8.53
2023-01-13T09:47:14.115Z,8.60
2023-01-13T09:49:42.107Z,8.60
2023-01-13T09:52:20.337Z,8.67
2023-01-13T09:55:14.004Z,8.68
2023-01-13T09:57:40.525Z,8.71
2023-01-13T10:00:29.167Z,8.70
2023-01-13T10:03:01.577Z,8.77
2023-01-13T10:05:32.355Z,8.77
2023-01-13T10:08:05.223Z,8.78
2023-01-13T10:10:46.575Z,8.77
2023-01-13T10:13:20.080Z,8.78
2023-01-13T10:15:57.809Z,8.78
2023-01-13T10:18:26.068Z,8.77
2023-01-13T10:20:59.621Z,8.78
2023-01-13T10:23:35.306Z,8.79
2023-01-13T10:26:24.975Z,8.80
2023-01-13T10:28:55.156Z,8.79
2023-01-13T10:31:22.542Z,8.76
2023-01-13T10:33:49.937Z,8.79
2023-01-13T10:36:23.258Z,8.76
2023-01-13T10:38:50.465Z,8.66
2023-01-13T10:41:19.806Z,8.62
2023-01-13T10:44:15.675Z,8.57
2023-01-13T10:46:56.871Z,8.60
2023-01-13T10:49:33.068Z,8.63
2023-01-13T10:52:00.782Z,8.69
2023-01-13T10:54:27.364Z,8.77
2023-01-13T10:57:13.449Z,8.73
2023-01-13T10:59:40.423Z,8.85
2023-01-13T11:02:25.893Z,8.92
2023-01-13T11:04:52.757Z,8.92
2023-01-13T11:07:37.140Z,8.92
2023-01-13T11:10:09.587Z,8.87
2023-01-13T11:13:11.719Z,8.84
2023-01-13T11:15:50.280Z,8.85
2023-01-13T11:18:24.409Z,8.92
2023-01-13T11:20:51.949Z,8.96
2023-01-13T11:23:27.385Z,8.93
2023-01-13T11:26:00.165Z,8.98
2023-01-13T11:28:45.380Z,9.03
2023-01-13T11:31:22.879Z,9.07
2023-01-13T11:33:59.377Z,9.16
2023-01-13T11:36:31.661Z,9.19
2023-01-13T11:39:18.821Z,9.23
2023-01-13T11:42:08.713Z,9.27
2023-01-13T11:44:55.847Z,9.23
2023-01-13T11:47:24.198Z,9.25
2023-01-13T11:49:50.655Z,9.19
2023-01-13T11:52:50.515Z,9.29
2023-01-13T11:55:28.937Z,9.32
2023-01-13T11:58:09.563Z,9.39
2023-01-13T12:01:01.177Z,9.40
2023-01-13T12:03:35.550Z,9.37
2023-01-13T12:06:17.545Z,9.36
2023-01-13T12:08:56.915Z,9.30
2023-01-13T12:12:11.103Z,9.04
2023-01-13T12:15:06.258Z,8.97
2023-01-13T12:17:54.553Z,9.00
2023-01-13T12:21:00.027Z,9.08
2023-01-13T12:23:32.742Z,9.12
2023-01-13T12:26:05.712Z,9.17
2023-01-13T12:28:50.277Z,9.22
2023-01-13T12:31:18.912Z,9.15
2023-01-13T12:34:02.425Z,8.96
2023-01-13T12:36:56.897Z,8.87
2023-01-13T12:39:43.384Z,8.92
2023-01-13T12:42:46.413Z,8.94
2023-01-13T12:45:12.717Z,9.06
2023-01-13T12:47:44.296Z,9.25
2023-01-13T12:50:23.641Z,9.30
2023-01-13T12:52:56.870Z,9.34
2023-01-13T12:55:24.801Z,9.38
2023-01-13T12:57:58.328Z,9.40
2023-01-13T13:00:32.443Z,9.38
2023-01-13T13:03:10.783Z,9.39
2023-01-13T13:05:55.508Z,9.34
2023-01-13T13:08:43.734Z,9.29
2023-01-13T13:11:32.965Z,9.34
2023-01-13T13:14:00.352Z,9.27
2023-01-13T13:16:26.747Z,9.25
2023-01-13T13:19:19.929Z,9.21
2023-01-13T13:22:14.643Z,9.12
2023-01-13T13:24:44.653Z,8.93
2023-01-13T13:27:36.379Z,9.01
2023-01-13T13:30:17.992Z,9.04
2023-01-13T13:32:51.889Z,9.12
2023-01-13T13:35:21.349Z,9.16
2023-01-13T13:38:27.960Z,9.24
2023-01-13T13:41:12.815Z,9.32
2023-01-13T13:43:59.347Z,9.31
2023-01-13T13:46:48.477Z,9.32
2023-01-13T13:49:14.790Z,9.32
2023-01-13T13:51:49.415Z,9.36
2023-01-13T13:54:19.426Z,9.40
2023-01-13T13:56:46.998Z,9.43
2023-01-13T13:59:17.791Z,9.45
2023-01-13T14:01:45.283Z,9.49
2023-01-13T14:04:22.911Z,9.48
2023-01-13T14:06:54.405Z,9.45
2023-01-13T14:09:21.983Z,9.44
2023-01-13T14:11:55.858Z,9.39
2023-01-13T14:14:22.930Z,9.38
2023-01-13T14:16:51.650Z,9.40
2023-01-13T14:19:25.223Z,9.53
2023-01-13T14:21:51.667Z,9.52
2023-01-13T14:24:20.570Z,9.58
2023-01-13T14:26:51.831Z,9.57
2023-01-13T14:29:24.919Z,9.52
2023-01-13T14:31:53.210Z,9.48
2023-01-13T14:34:32.633Z,9.47
2023-01-13T14:37:00.569Z,9.48
2023-01-13T14:39:38.893Z,9.39
2023-01-13T14:42:12.181Z,9.39
2023-01-13T14:44:44.329Z,9.32
2023-01-13T14:47:23.759Z,9.31
2023-01-13T14:49:54.844Z,9.30
2023-01-13T14:52:23.902Z,9.25
2023-01-13T14:54:53.975Z,9.21
2023-01-13T14:57:34.327Z,9.04
2023-01-13T15:00:16.363Z,8.84
2023-01-13T15:02:57.866Z,8.79
2023-01-13T15:05:27.097Z,8.65
2023-01-13T15:07:54.659Z,8.51
2023-01-13T15:10:27.064Z,8.45
2023-01-13T15:12:56.074Z,8.40
2023-01-13T15:15:25.146Z,8.41
2023-01-13T15:17:52.293Z,8.35
2023-01-13T15:20:21.296Z,8.29
2023-01-13T15:22:48.199Z,8.25
2023-01-13T15:25:14.998Z,8.17
2023-01-13T15:27:43.334Z,8.14
2023-01-13T15:30:14.658Z,8.15
2023-01-13T15:32:41.292Z,8.15
2023-01-13T15:35:08.717Z,8.12
2023-01-13T15:37:36.211Z,8.09
2023-01-13T15:40:03.160Z,8.06
2023-01-13T15:42:48.598Z,8.07
2023-01-13T15:45:33.674Z,8.04
2023-01-13T15:48:00.056Z,8.02
2023-01-13T15:50:27.017Z,8.09
2023-01-13T15:52:53.618Z,8.04
2023-01-13T15:55:22.858Z,8.01
2023-01-13T15:57:50.170Z,7.94
2023-01-13T16:00:22.995Z,7.94
2023-01-13T16:02:49.764Z,7.84
2023-01-13T16:05:16.346Z,7.96
2023-01-13T16:07:42.879Z,7.92
2023-01-13T16:10:21.807Z,7.89
2023-01-13T16:12:48.210Z,7.82
2023-01-13T16:15:16.625Z,7.85
2023-01-13T16:17:44.813Z,7.77
2023-01-13T16:20:16.627Z,7.79
2023-01-13T16:22:43.120Z,7.74
2023-01-13T16:25:19.640Z,7.68
2023-01-13T16:27:46.679Z,7.63
2023-01-13T16:30:31.912Z,7.69
2023-01-13T16:32:58.575Z,7.72
2023-01-13T16:35:25.777Z,7.77
2023-01-13T16:37:53.856Z,7.74
2023-01-13T16:40:23.177Z,7.77
2023-01-13T16:42:49.840Z,7.81
2023-01-13T16:45:16.667Z,7.82
2023-01-13T16:47:44.363Z,7.84
2023-01-13T16:50:30.340Z,7.84
2023-01-13T16:52:56.742Z,7.81
2023-01-13T16:55:23.150Z,7.83
2023-01-13T16:57:49.881Z,7.89
2023-01-13T17:00:16.971Z,7.84
2023-01-13T17:02:43.530Z,7.77
2023-01-13T17:05:13.671Z,7.73
2023-01-13T17:07:45.105Z,7.63
2023-01-13T17:10:16.947Z,7.60
2023-01-13T17:12:43.333Z,7.56
2023-01-13T17:15:14.806Z,7.50
2023-01-13T17:17:43.359Z,7.58
2023-01-13T17:20:14.880Z,7.65
2023-01-13T17:22:42.456Z,7.61
2023-01-13T17:25:12.554Z,7.61
2023-01-13T17:27:38.957Z,7.60
2023-01-13T17:30:05.981Z,7.55
2023-01-13T17:32:32.377Z,7.56
2023-01-13T17:35:01.484Z,7.55
2023-01-13T17:37:28.578Z,7.49
2023-01-13T17:39:55.632Z,7.43
2023-01-13T17:42:23.738Z,7.46
2023-01-13T17:44:51.095Z,7.43
2023-01-13T17:47:17.539Z,7.39
2023-01-13T17:49:43.927Z,7.35
2023-01-13T17:52:10.499Z,7.35
2023-01-13T17:54:36.950Z,7.37
2023-01-13T17:57:03.504Z,7.31
2023-01-13T17:59:29.943Z,7.31
2023-01-13T18:01:56.478Z,7.35
2023-01-13T18:04:26.974Z,7.32
2023-01-13T18:06:53.552Z,7.27
2023-01-13T18:09:20.014Z,7.26
2023-01-13T18:11:47.315Z,7.21
2023-01-13T18:14:14.071Z,7.16
2023-01-13T18:16:40.688Z,7.14
2023-01-13T18:19:27.408Z,7.08
2023-01-13T18:22:12.436Z,7.15
2023-01-13T18:24:57.470Z,7.04
2023-01-13T18:27:29.755Z,7.06
2023-01-13T18:29:58.499Z,7.07
2023-01-13T18:32:30.154Z,7.05
2023-01-13T18:35:05.584Z,6.99
2023-01-13T18:37:35.777Z,6.94
2023-01-13T18:40:02.836Z,6.95
2023-01-13T18:42:47.888Z,6.95
2023-01-13T18:45:14.327Z,6.95
2023-01-13T18:47:42.239Z,6.99
2023-01-13T18:50:12.098Z,6.93
2023-01-13T18:52:38.479Z,6.91
2023-01-13T18:55:05.170Z,6.93
2023-01-13T18:57:31.670Z,6.98
2023-01-13T18:59:58.033Z,6.99
2023-01-13T19:02:26.358Z,7.01
2023-01-13T19:04:53.818Z,7.01
2023-01-13T19:07:28.883Z,7.00
2023-01-13T19:09:55.929Z,6.99
2023-01-13T19:12:31.214Z,6.97
2023-01-13T19:14:58.359Z,6.96
2023-01-13T19:17:26.746Z,6.99
2023-01-13T19:19:55.284Z,6.92
2023-01-13T19:22:24.008Z,6.98
2023-01-13T19:24:50.703Z,6.98
2023-01-13T19:27:18.343Z,6.99
2023-01-13T19:29:50.737Z,7.02
2023-01-13T19:32:20.399Z,7.05
2023-01-13T19:34:49.155Z,7.07
2023-01-13T19:37:15.829Z,7.07
2023-01-13T19:39:42.320Z,7.15
2023-01-13T19:42:29.973Z,7.17
2023-01-13T19:45:15.019Z,7.18
2023-01-13T19:47:41.531Z,7.21
2023-01-13T19:50:08.822Z,7.15
2023-01-13T19:52:35.240Z,7.18
2023-01-13T19:55:02.038Z,7.12
2023-01-13T19:57:28.626Z,7.15
2023-01-13T19:59:56.226Z,7.18
2023-01-13T20:02:31.276Z,7.18
2023-01-13T20:05:01.894Z,7.18
2023-01-13T20:07:29.791Z,7.21
2023-01-13T20:09:56.629Z,7.24
2023-01-13T20:12:24.358Z,7.23
2023-01-13T20:14:50.810Z,7.24
2023-01-13T20:17:19.600Z,7.24
2023-01-13T20:19:46.110Z,7.28
2023-01-13T20:22:13.483Z,7.28
2023-01-13T20:24:39.927Z,7.25
2023-01-13T20:27:06.696Z,7.30
2023-01-13T20:29:33.423Z,7.28
2023-01-13T20:32:00.223Z,7.30
2023-01-13T20:34:26.684Z,7.28
2023-01-13T20:36:53.326Z,7.35
2023-01-13T20:39:26.259Z,7.27
2023-01-13T20:42:11.324Z,7.27
2023-01-13T20:44:37.873Z,7.28
2023-01-13T20:47:04.397Z,7.25
2023-01-13T20:49:31.152Z,7.25
2023-01-13T20:51:57.650Z,7.28
2023-01-13T20:54:24.472Z,7.24
2023-01-13T20:56:50.978Z,7.20
2023-01-13T20:59:17.531Z,7.19
2023-01-13T21:01:44.054Z,7.25
2023-01-13T21:04:10.758Z,7.22
2023-01-13T21:06:37.225Z,7.23
2023-01-13T21:09:04.037Z,7.22
2023-01-13T21:11:49.182Z,7.11
2023-01-13T21:14:42.541Z,7.20
2023-01-13T21:17:30.103Z,7.21
2023-01-13T21:19:56.540Z,7.20
2023-01-13T21:22:23.087Z,7.18
2023-01-13T21:24:49.540Z,7.24
2023-01-13T21:27:15.948Z,7.27
2023-01-13T21:29:44.419Z,7.19
2023-01-13T21:32:11.327Z,7.16
2023-01-13T21:34:37.716Z,7.22
2023-01-13T21:37:04.134Z,7.09
2023-01-13T21:39:30.604Z,7.12
2023-01-13T21:42:15.674Z,7.11
2023-01-13T21:45:00.448Z,7.07
2023-01-13T21:47:45.213Z,7.10
2023-01-13T21:50:13.756Z,7.11
2023-01-13T21:52:42.787Z,7.04
2023-01-13T21:55:26.853Z,7.15
2023-01-13T21:57:54.245Z,7.07
2023-01-13T22:00:22.311Z,7.08
2023-01-13T22:02:49.305Z,7.12
2023-01-13T22:05:20.531Z,7.07
2023-01-13T22:07:46.990Z,7.17
2023-01-13T22:10:16.458Z,7.11
2023-01-13T22:12:43.519Z,7.08
2023-01-13T22:15:11.570Z,7.05
2023-01-13T22:17:38.045Z,7.10
2023-01-13T22:20:04.989Z,7.11
2023-01-13T22:22:36.569Z,7.11
2023-01-13T22:25:09.169Z,7.12
2023-01-13T22:27:40.491Z,7.08
2023-01-13T22:30:08.945Z,7.06
2023-01-13T22:32:37.643Z,7.11
2023-01-13T22:35:06.476Z,7.05
2023-01-13T22:37:32.956Z,7.10
2023-01-13T22:39:59.399Z,7.03
2023-01-13T22:42:25.895Z,7.01
2023-01-13T22:44:52.310Z,7.05
2023-01-13T22:47:18.777Z,7.08
2023-01-13T22:49:47.674Z,7.02
2023-01-13T22:52:15.435Z,6.96
2023-01-13T22:54:41.931Z,6.94
2023-01-13T22:57:08.497Z,6.91
2023-01-13T22:59:34.990Z,6.98
2023-01-13T23:02:01.424Z,6.96
2023-01-13T23:04:27.863Z,6.98
2023-01-13T23:06:54.304Z,6.98
2023-01-13T23:09:20.768Z,6.92
2023-01-13T23:11:47.922Z,6.97
2023-01-13T23:14:14.475Z,6.98
2023-01-13T23:16:41.345Z,6.97
2023-01-13T23:19:08.106Z,6.99
2023-01-13T23:21:37.040Z,6.99
2023-01-13T23:24:05.306Z,7.01
2023-01-13T23:26:32.663Z,6.95
2023-01-13T23:29:04.616Z,6.94
2023-01-13T23:31:31.108Z,6.94
2023-01-13T23:33:57.585Z,6.94
2023-01-13T23:36:25.756Z,6.96
2023-01-13T23:38:52.429Z,6.96
2023-01-13T23:41:24.504Z,6.95
2023-01-13T23:43:56.301Z,6.95
2023-01-13T23:46:22.939Z,6.98
2023-01-13T23:48:50.224Z,6.96
2023-01-13T23:51:17.206Z,6.95
2023-01-13T23:53:45.756Z,6.95
2023-01-13T23:56:14.902Z,6.96
2023-01-13T23:58:42.104Z,6.89
